createdAt,value
2023-05-17T00:01:02.172Z,69.04
2023-05-17T00:03:29.885Z,69.18
2023-05-17T00:05:57.552Z,69.55
2023-05-17T00:08:26.700Z,69.45
2023-05-17T00:10:54.414Z,69.50
2023-05-17T00:13:22.302Z,69.42
2023-05-17T00:15:50.025Z,69.30
2023-05-17T00:18:17.882Z,69.33
2023-05-17T00:20:45.677Z,69.58
2023-05-17T00:23:13.428Z,69.62
2023-05-17T00:25:42.560Z,69.86
2023-05-17T00:28:10.311Z,70.00
2023-05-17T00:30:38.031Z,70.40
2023-05-17T00:33:05.778Z,70.74
2023-05-17T00:35:33.504Z,70.66
2023-05-17T00:38:01.541Z,70.77
2023-05-17T00:40:29.303Z,71.02
2023-05-17T00:42:58.445Z,71.24
2023-05-17T00:45:26.354Z,71.14
2023-05-17T00:47:54.205Z,71.24
2023-05-17T00:50:22.222Z,71.34
2023-05-17T00:52:50.061Z,71.68
2023-05-17T00:55:19.689Z,71.92
2023-05-17T00:57:47.533Z,71.82
2023-05-17T01:00:17.086Z,72.34
2023-05-17T01:02:48.419Z,72.47
2023-05-17T01:05:16.438Z,72.82
2023-05-17T01:07:44.200Z,73.04
2023-05-17T01:10:12.405Z,73.42
2023-05-17T01:12:49.759Z,73.84
2023-05-17T01:15:23.661Z,73.74
2023-05-17T01:17:54.931Z,73.75
2023-05-17T01:20:28.171Z,74.13
2023-05-17T01:23:11.031Z,74.14
2023-05-17T01:25:47.743Z,74.58
2023-05-17T01:28:17.863Z,74.94
2023-05-17T01:30:46.638Z,74.62
2023-05-17T01:33:14.715Z,74.77
2023-05-17T01:35:42.484Z,74.71
2023-05-17T01:38:10.319Z,74.96
2023-05-17T01:40:41.194Z,75.14
2023-05-17T01:43:14.826Z,75.20
2023-05-17T01:45:48.612Z,75.39
2023-05-17T01:48:22.966Z,75.35
2023-05-17T01:50:52.364Z,75.49
2023-05-17T01:53:23.437Z,75.90
2023-05-17T01:55:52.321Z,76.04
2023-05-17T01:58:22.908Z,75.86
2023-05-17T02:00:54.228Z,75.99
2023-05-17T02:03:22.480Z,76.09
2023-05-17T02:05:50.252Z,75.88
2023-05-17T02:08:18.083Z,76.25
2023-05-17T02:10:45.772Z,76.20
2023-05-17T02:13:13.817Z,76.31
2023-05-17T02:15:41.576Z,76.12
2023-05-17T02:18:11.804Z,76.07
2023-05-17T02:20:39.686Z,75.94
2023-05-17T02:23:07.419Z,75.70
2023-05-17T02:25:35.179Z,75.57
2023-05-17T02:28:02.940Z,75.34
2023-05-17T02:30:30.692Z,75.33
2023-05-17T02:32:58.513Z,75.26
2023-05-17T02:35:28.049Z,74.92
2023-05-17T02:37:56.142Z,74.97
2023-05-17T02:40:23.832Z,74.91
2023-05-17T02:42:51.646Z,74.19
2023-05-17T02:45:19.533Z,74.36
2023-05-17T02:47:47.311Z,74.45
2023-05-17T02:50:15.149Z,74.28
2023-05-17T02:52:44.346Z,73.89
2023-05-17T02:55:12.117Z,73.97
2023-05-17T02:57:39.883Z,73.66
2023-05-17T03:00:10.479Z,73.39
2023-05-17T03:02:38.306Z,73.35
2023-05-17T03:05:06.998Z,73.45
2023-05-17T03:07:34.835Z,72.99
2023-05-17T03:10:03.956Z,73.04
2023-05-17T03:12:31.683Z,72.81
2023-05-17T03:14:59.397Z,72.92
2023-05-17T03:17:27.206Z,72.54
2023-05-17T03:19:55.402Z,72.53
2023-05-17T03:22:23.381Z,72.39
2023-05-17T03:24:51.028Z,72.36
2023-05-17T03:27:20.194Z,72.46
2023-05-17T03:29:48.011Z,72.42
2023-05-17T03:32:15.686Z,72.22
2023-05-17T03:34:43.351Z,72.29
2023-05-17T03:37:11.083Z,72.06
2023-05-17T03:39:38.800Z,72.22
2023-05-17T03:42:07.299Z,72.05
2023-05-17T03:44:36.406Z,72.16
2023-05-17T03:47:04.109Z,71.99
2023-05-17T03:49:31.851Z,71.77
2023-05-17T03:51:59.587Z,71.76
2023-05-17T03:54:27.418Z,71.64
2023-05-17T03:56:55.158Z,71.66
2023-05-17T03:59:22.922Z,71.58
2023-05-17T04:01:52.050Z,71.94
2023-05-17T04:04:19.824Z,72.07
2023-05-17T04:06:48.080Z,71.77
2023-05-17T04:09:15.764Z,71.70
2023-05-17T04:11:43.720Z,71.54
2023-05-17T04:14:11.412Z,71.47
2023-05-17T04:16:39.149Z,71.31
2023-05-17T04:19:08.531Z,71.22
2023-05-17T04:21:36.387Z,71.24
2023-05-17T04:24:04.225Z,71.23
2023-05-17T04:26:32.229Z,71.20
2023-05-17T04:28:59.959Z,71.20
2023-05-17T04:31:27.706Z,71.06
2023-05-17T04:33:55.466Z,71.09
2023-05-17T04:36:24.636Z,71.04
2023-05-17T04:38:52.493Z,70.86
2023-05-17T04:41:20.198Z,71.47
2023-05-17T04:43:47.989Z,71.29
2023-05-17T04:46:16.005Z,71.23
2023-05-17T04:48:43.868Z,71.68
2023-05-17T04:51:11.913Z,71.51
2023-05-17T04:53:41.057Z,71.60
2023-05-17T04:56:08.932Z,71.58
2023-05-17T04:58:36.768Z,71.99
2023-05-17T05:01:04.745Z,71.78
2023-05-17T05:03:32.598Z,71.88
2023-05-17T05:06:00.398Z,71.81
2023-05-17T05:08:28.064Z,71.48
2023-05-17T05:10:57.126Z,72.05
2023-05-17T05:13:24.846Z,71.61
2023-05-17T05:15:52.686Z,71.73
2023-05-17T05:18:20.390Z,71.90
2023-05-17T05:20:49.630Z,71.89
2023-05-17T05:23:18.538Z,71.76
2023-05-17T05:25:47.399Z,71.37
2023-05-17T05:28:16.562Z,71.38
2023-05-17T05:30:44.366Z,71.17
2023-05-17T05:33:12.161Z,71.03
2023-05-17T05:35:40.192Z,71.69
2023-05-17T05:38:07.950Z,70.85
2023-05-17T05:40:35.686Z,71.04
2023-05-17T05:43:03.485Z,70.91
2023-05-17T05:45:32.578Z,70.26
2023-05-17T05:48:00.349Z,70.00
2023-05-17T05:50:28.361Z,69.41
2023-05-17T05:53:10.452Z,68.57
2023-05-17T05:55:45.599Z,69.02
2023-05-17T05:58:13.364Z,67.37
2023-05-17T06:00:42.479Z,67.42
2023-05-17T06:03:10.415Z,66.79
2023-05-17T06:05:38.666Z,66.33
2023-05-17T06:08:06.813Z,66.01
2023-05-17T06:10:34.552Z,65.27
2023-05-17T06:13:02.366Z,64.90
2023-05-17T06:15:32.877Z,65.01
2023-05-17T06:18:02.158Z,64.64
2023-05-17T06:20:30.273Z,64.53
2023-05-17T06:22:58.267Z,64.18
2023-05-17T06:25:26.185Z,64.03
2023-05-17T06:27:53.873Z,63.09
2023-05-17T06:30:21.858Z,61.72
2023-05-17T06:32:49.699Z,61.74
2023-05-17T06:35:20.117Z,61.02
2023-05-17T06:37:47.839Z,61.45
2023-05-17T06:40:17.108Z,61.54
2023-05-17T06:42:45.215Z,61.67
2023-05-17T06:45:13.274Z,60.90
2023-05-17T06:47:41.323Z,59.76
2023-05-17T06:50:10.270Z,59.96
2023-05-17T06:52:39.445Z,59.67
2023-05-17T06:55:07.827Z,58.65
2023-05-17T06:57:35.645Z,57.69
2023-05-17T07:00:06.821Z,57.34
2023-05-17T07:02:34.903Z,57.41
2023-05-17T07:05:02.831Z,57.91
2023-05-17T07:07:30.645Z,57.06
2023-05-17T07:09:59.844Z,57.14
2023-05-17T07:12:27.705Z,56.85
2023-05-17T07:14:55.573Z,56.85
2023-05-17T07:17:23.323Z,56.19
2023-05-17T07:19:51.380Z,55.93
2023-05-17T07:22:19.341Z,56.34
2023-05-17T07:24:47.648Z,55.34
2023-05-17T07:27:16.746Z,55.05
2023-05-17T07:29:47.240Z,54.49
2023-05-17T07:32:16.028Z,53.92
2023-05-17T07:34:43.866Z,53.17
2023-05-17T07:37:11.605Z,53.57
2023-05-17T07:39:39.319Z,52.84
2023-05-17T07:42:08.041Z,52.84
2023-05-17T07:44:37.228Z,52.19
2023-05-17T07:47:05.177Z,52.50
2023-05-17T07:49:35.415Z,52.67
2023-05-17T07:52:04.017Z,52.01
2023-05-17T07:54:32.421Z,52.04
2023-05-17T07:57:48.509Z,52.28
2023-05-17T08:00:19.385Z,52.80
2023-05-17T08:02:47.196Z,52.14
2023-05-17T08:05:15.074Z,52.18
2023-05-17T08:09:40.184Z,52.42
2023-05-17T08:12:07.915Z,52.92
2023-05-17T08:14:35.617Z,52.07
2023-05-17T08:17:03.495Z,51.10
2023-05-17T08:19:31.636Z,51.37
2023-05-17T08:22:00.733Z,50.67
2023-05-17T08:24:28.462Z,50.88
2023-05-17T08:26:58.625Z,52.29
2023-05-17T08:29:28.732Z,50.88
2023-05-17T08:31:56.906Z,50.92
2023-05-17T08:34:25.730Z,50.74
2023-05-17T08:36:53.853Z,50.09
2023-05-17T08:39:21.666Z,49.09
2023-05-17T08:41:49.498Z,49.58
2023-05-17T08:44:18.616Z,48.20
2023-05-17T08:46:53.875Z,49.31
2023-05-17T08:49:23.787Z,49.61
2023-05-17T08:51:52.365Z,49.05
2023-05-17T08:54:20.134Z,47.95
2023-05-17T08:56:52.333Z,47.47
2023-05-17T08:59:21.581Z,47.98
2023-05-17T09:01:51.005Z,48.82
2023-05-17T09:04:19.180Z,47.74
2023-05-17T09:06:47.101Z,47.89
2023-05-17T09:09:14.983Z,49.10
2023-05-17T09:11:42.749Z,49.61
2023-05-17T09:14:10.481Z,50.14
2023-05-17T09:16:41.275Z,49.01
2023-05-17T09:19:09.714Z,48.66
2023-05-17T09:21:37.939Z,49.20
2023-05-17T09:24:08.307Z,48.13
2023-05-17T09:26:40.591Z,47.18
2023-05-17T09:29:12.744Z,46.83
2023-05-17T09:31:42.268Z,48.46
2023-05-17T09:34:10.272Z,46.38
2023-05-17T09:36:39.509Z,47.18
2023-05-17T09:39:12.663Z,46.60
2023-05-17T09:41:45.387Z,47.62
2023-05-17T09:44:14.338Z,46.81
2023-05-17T09:46:46.282Z,45.67
2023-05-17T09:49:14.628Z,45.82
2023-05-17T09:51:43.869Z,46.09
2023-05-17T09:54:11.906Z,45.56
2023-05-17T09:56:40.154Z,46.37
2023-05-17T09:59:13.006Z,46.14
2023-05-17T10:01:42.257Z,45.84
2023-05-17T10:04:12.580Z,45.52
2023-05-17T10:09:15.023Z,46.40
2023-05-17T10:11:44.646Z,45.89
2023-05-17T10:14:14.994Z,46.81
2023-05-17T10:16:44.079Z,46.63
2023-05-17T10:19:13.618Z,44.70
2023-05-17T10:21:43.058Z,45.93
2023-05-17T10:24:11.561Z,45.84
2023-05-17T10:26:39.858Z,45.30
2023-05-17T10:29:07.789Z,45.86
2023-05-17T10:31:36.494Z,45.78
2023-05-17T10:34:05.678Z,45.22
2023-05-17T10:36:35.272Z,45.23
2023-05-17T10:39:03.330Z,44.86
2023-05-17T10:41:34.471Z,44.39
2023-05-17T10:44:03.805Z,45.08
2023-05-17T10:46:32.364Z,44.52
2023-05-17T10:49:01.907Z,45.12
2023-05-17T10:51:32.300Z,44.84
2023-05-17T10:54:09.956Z,44.76
2023-05-17T10:56:41.576Z,45.33
2023-05-17T10:59:16.897Z,44.84
2023-05-17T11:01:53.444Z,45.19
2023-05-17T11:04:22.637Z,44.54
2023-05-17T11:06:50.792Z,44.19
2023-05-17T11:09:23.707Z,44.35
2023-05-17T11:12:09.058Z,44.69
2023-05-17T11:14:53.456Z,44.32
2023-05-17T11:17:22.755Z,43.80
2023-05-17T11:19:56.596Z,44.15
2023-05-17T11:22:24.672Z,44.75
2023-05-17T11:24:54.909Z,42.79
2023-05-17T11:27:27.429Z,41.64
2023-05-17T11:29:56.550Z,42.97
2023-05-17T11:32:29.086Z,43.42
2023-05-17T11:34:56.864Z,42.18
2023-05-17T11:37:28.061Z,42.99
2023-05-17T11:40:08.787Z,44.06
2023-05-17T11:42:37.298Z,43.44
2023-05-17T11:45:06.046Z,42.65
2023-05-17T11:47:34.042Z,42.00
2023-05-17T11:50:04.524Z,42.25
2023-05-17T11:53:55.370Z,42.37
2023-05-17T11:56:35.668Z,41.54
2023-05-17T11:59:10.226Z,42.71
2023-05-17T12:01:46.099Z,42.08
2023-05-17T12:04:14.197Z,43.08
2023-05-17T12:06:42.466Z,43.84
2023-05-17T12:09:13.505Z,43.33
2023-05-17T12:11:42.451Z,44.08
2023-05-17T12:14:10.235Z,43.09
2023-05-17T12:16:38.501Z,42.66
2023-05-17T12:19:06.411Z,43.85
2023-05-17T12:24:11.990Z,41.56
2023-05-17T12:26:43.915Z,41.54
2023-05-17T12:29:12.228Z,41.62
2023-05-17T12:31:42.561Z,42.27
2023-05-17T12:34:12.745Z,42.33
2023-05-17T12:36:41.493Z,42.14
2023-05-17T12:39:10.228Z,41.92
2023-05-17T12:41:39.693Z,43.07
2023-05-17T12:46:40.044Z,42.26
2023-05-17T12:49:09.306Z,42.21
2023-05-17T12:51:42.151Z,41.99
2023-05-17T12:54:09.896Z,41.51
2023-05-17T12:56:38.990Z,41.12
2023-05-17T12:59:08.204Z,40.36
2023-05-17T13:01:36.821Z,40.07
2023-05-17T13:04:04.895Z,40.41
2023-05-17T13:06:44.837Z,40.47
2023-05-17T13:09:13.288Z,41.82
2023-05-17T13:11:43.454Z,41.46
2023-05-17T13:14:12.495Z,42.16
2023-05-17T13:16:41.040Z,42.07
2023-05-17T13:19:15.373Z,42.01
2023-05-17T13:21:43.112Z,42.12
2023-05-17T13:24:11.281Z,41.17
2023-05-17T13:26:38.998Z,41.90
2023-05-17T13:29:08.084Z,41.50
2023-05-17T13:31:35.892Z,40.87
2023-05-17T13:34:03.707Z,41.65
2023-05-17T13:38:41.363Z,42.54
2023-05-17T13:41:09.895Z,41.09
2023-05-17T13:43:37.705Z,40.80
2023-05-17T13:46:05.447Z,40.03
2023-05-17T13:48:33.530Z,40.35
2023-05-17T13:51:01.971Z,41.84
2023-05-17T13:53:30.019Z,41.24
2023-05-17T13:55:59.135Z,41.06
2023-05-17T13:58:26.898Z,40.37
2023-05-17T14:00:54.635Z,40.46
2023-05-17T14:03:22.684Z,40.75
2023-05-17T14:05:52.730Z,41.61
2023-05-17T14:08:20.607Z,42.02
2023-05-17T14:10:48.312Z,41.95
2023-05-17T14:13:17.431Z,43.09
2023-05-17T14:15:45.145Z,42.05
2023-05-17T14:18:12.879Z,40.85
2023-05-17T14:20:40.678Z,40.93
2023-05-17T14:23:08.369Z,39.04
2023-05-17T14:25:36.089Z,39.12
2023-05-17T14:28:03.823Z,39.79
2023-05-17T16:14:59.088Z,45.22
2023-05-17T16:17:28.215Z,44.74
2023-05-17T16:19:56.197Z,44.92
2023-05-17T16:22:24.007Z,44.96
2023-05-17T16:24:53.660Z,44.77
2023-05-17T16:27:21.720Z,44.18
2023-05-17T16:29:49.363Z,43.68
2023-05-17T16:32:18.673Z,44.37
2023-05-17T16:34:46.557Z,44.51
2023-05-17T16:37:14.284Z,44.52
2023-05-17T19:43:35.655Z,50.96
2023-05-17T19:46:04.002Z,51.14
2023-05-17T19:48:31.777Z,51.21
2023-05-17T19:50:59.520Z,51.05
2023-05-17T19:53:28.604Z,50.96
2023-05-17T19:56:01.041Z,51.40
2023-05-17T19:58:29.313Z,51.34
2023-05-17T20:00:58.441Z,51.38
2023-05-17T20:03:27.157Z,51.66
2023-05-17T20:05:55.133Z,51.51
2023-05-17T20:08:23.276Z,51.63
2023-05-17T20:10:51.027Z,51.50
2023-05-17T20:13:22.998Z,51.57
2023-05-17T20:15:50.709Z,51.62
2023-05-17T20:18:19.809Z,52.04
2023-05-17T20:20:47.515Z,52.40
2023-05-17T20:23:15.269Z,52.51
2023-05-17T20:25:43.113Z,52.57
2023-05-17T20:28:10.905Z,52.51
2023-05-17T20:30:38.640Z,52.52
2023-05-17T20:33:09.131Z,52.56
2023-05-17T20:35:39.601Z,52.56
2023-05-17T20:38:07.320Z,52.65
2023-05-17T20:40:36.565Z,52.65
2023-05-17T20:43:04.316Z,52.77
2023-05-17T20:45:33.754Z,52.80
2023-05-17T20:48:01.536Z,53.14
2023-05-17T20:50:30.025Z,53.07
2023-05-17T20:52:59.246Z,52.99
2023-05-17T20:55:27.029Z,53.12
2023-05-17T20:57:55.066Z,52.85
2023-05-17T21:00:23.311Z,53.11
2023-05-17T21:02:51.349Z,52.94
2023-05-17T21:05:19.353Z,53.61
2023-05-17T21:07:47.109Z,53.32
2023-05-17T21:10:17.794Z,53.13
2023-05-17T21:12:45.576Z,53.31
2023-05-17T21:15:30.875Z,53.23
2023-05-17T21:17:58.821Z,53.56
2023-05-17T21:20:26.698Z,53.85
2023-05-17T21:22:54.499Z,53.63
2023-05-17T21:25:23.936Z,53.99
2023-05-17T21:27:52.057Z,54.23
2023-05-17T21:30:20.178Z,54.04
2023-05-17T21:32:48.001Z,54.30
2023-05-17T21:35:16.092Z,54.26
2023-05-17T21:37:43.818Z,54.22
2023-05-17T21:40:12.038Z,54.20
2023-05-17T21:42:41.282Z,54.28
2023-05-17T21:45:09.716Z,53.92
2023-05-17T21:47:37.515Z,54.12
2023-05-17T21:50:05.881Z,54.55
2023-05-17T21:52:33.840Z,54.79
2023-05-17T21:55:01.596Z,54.67
2023-05-17T21:57:29.326Z,54.76
2023-05-17T21:59:58.353Z,54.62
2023-05-17T22:02:26.383Z,54.76
2023-05-17T22:04:54.730Z,55.17
2023-05-17T22:07:22.475Z,55.32
2023-05-17T22:09:50.269Z,55.52
2023-05-17T22:12:25.102Z,55.26
2023-05-17T22:14:53.534Z,55.44
2023-05-17T22:17:29.572Z,55.28
2023-05-17T22:20:04.071Z,55.71
2023-05-17T22:22:32.790Z,55.73
2023-05-17T22:25:00.628Z,55.88
2023-05-17T22:27:28.382Z,56.02
2023-05-17T22:29:56.086Z,56.31
2023-05-17T22:32:25.492Z,56.14
2023-05-17T22:34:56.071Z,56.16
2023-05-17T22:37:23.928Z,56.50
2023-05-17T22:39:51.655Z,56.24
2023-05-17T22:42:19.402Z,56.35
2023-05-17T22:44:47.276Z,56.56
2023-05-17T22:47:15.406Z,56.57
2023-05-17T22:49:44.698Z,56.93
2023-05-17T22:52:15.925Z,57.09
2023-05-17T22:54:43.635Z,56.94
2023-05-17T22:57:11.814Z,56.82
2023-05-17T22:59:39.670Z,56.94
2023-05-17T23:02:07.389Z,57.23
2023-05-17T23:04:37.765Z,57.05
2023-05-17T23:07:09.761Z,57.22
2023-05-17T23:09:40.403Z,57.20
2023-05-17T23:12:13.861Z,57.25
2023-05-17T23:14:41.648Z,57.33
2023-05-17T23:17:09.879Z,57.43
2023-05-17T23:19:37.558Z,57.31
2023-05-17T23:22:06.735Z,57.34
2023-05-17T23:24:38.359Z,57.39
2023-05-17T23:27:09.884Z,57.53
2023-05-17T23:29:37.835Z,57.56
2023-05-17T23:32:05.944Z,57.47
2023-05-17T23:34:33.779Z,57.58
2023-05-17T23:37:01.436Z,57.74
2023-05-17T23:39:30.636Z,57.64
2023-05-17T23:41:58.347Z,57.79
2023-05-17T23:44:26.795Z,57.94
2023-05-17T23:46:55.369Z,58.10
2023-05-17T23:49:23.957Z,58.09
2023-05-17T23:51:51.755Z,58.12
2023-05-17T23:54:19.987Z,57.82
2023-05-17T23:56:49.131Z,57.99
2023-05-17T23:59:16.871Z,57.97
